createdAt,value
2023-04-29T00:01:39.857Z,13.82
2023-04-29T00:04:07.459Z,13.25
2023-04-29T00:06:34.974Z,10.90
2023-04-29T00:09:02.323Z,11.93
2023-04-29T00:11:29.731Z,10.48
2023-04-29T00:13:57.066Z,12.45
2023-04-29T00:16:24.442Z,13.50
2023-04-29T00:18:51.864Z,11.57
2023-04-29T00:21:19.438Z,13.15
2023-04-29T00:23:47.012Z,10.48
2023-04-29T00:26:14.351Z,12.70
2023-04-29T00:28:46.253Z,11.88
2023-04-29T00:31:14.839Z,9.68
2023-04-29T00:33:42.636Z,11.13
2023-04-29T00:36:10.171Z,12.77
2023-04-29T00:38:37.757Z,11.90
2023-04-29T00:41:05.198Z,11.25
2023-04-29T00:43:32.671Z,13.30
2023-04-29T00:46:00.013Z,11.65
2023-04-29T00:48:27.603Z,12.75
2023-04-29T00:50:54.958Z,13.20
2023-04-29T00:53:23.326Z,9.32
2023-04-29T00:55:51.843Z,10.00
2023-04-29T00:58:20.112Z,8.38
2023-04-29T01:00:48.087Z,10.63
2023-04-29T01:03:19.567Z,12.15
2023-04-29T01:05:58.068Z,12.40
2023-04-29T01:08:35.678Z,11.90
2023-04-29T01:11:11.061Z,9.07
2023-04-29T01:14:04.954Z,11.80
2023-04-29T01:16:51.818Z,11.55
2023-04-29T01:20:00.579Z,10.07
2023-04-29T01:22:27.991Z,11.45
2023-04-29T01:24:55.369Z,11.05
2023-04-29T01:27:31.833Z,9.77
2023-04-29T01:30:34.481Z,12.82
2023-04-29T01:33:17.863Z,15.38
2023-04-29T01:36:14.018Z,12.98
2023-04-29T01:38:58.161Z,13.05
2023-04-29T01:41:43.178Z,16.80
2023-04-29T01:44:18.662Z,14.40
2023-04-29T01:46:55.038Z,13.15
2023-04-29T01:49:28.523Z,18.02
2023-04-29T01:51:56.417Z,15.15
2023-04-29T01:54:24.105Z,14.00
2023-04-29T01:56:52.244Z,15.45
2023-04-29T01:59:27.451Z,19.20
2023-04-29T02:02:15.087Z,20.10
2023-04-29T02:04:52.175Z,15.25
2023-04-29T02:07:19.714Z,18.27
2023-04-29T02:09:48.250Z,20.77
2023-04-29T02:12:15.659Z,18.98
2023-04-29T02:14:43.028Z,16.85
2023-04-29T02:17:10.480Z,16.33
2023-04-29T02:19:37.941Z,15.10
2023-04-29T02:22:05.565Z,16.48
2023-04-29T02:24:32.929Z,15.38
2023-04-29T02:27:00.351Z,18.80
2023-04-29T02:29:31.015Z,21.33
2023-04-29T02:31:59.283Z,18.40
2023-04-29T02:34:26.797Z,16.88
2023-04-29T02:36:57.037Z,15.68
2023-04-29T02:39:24.852Z,17.38
2023-04-29T02:41:56.344Z,15.20
2023-04-29T02:44:24.556Z,16.80
2023-04-29T02:46:51.914Z,18.35
2023-04-29T02:49:19.316Z,21.67
2023-04-29T02:51:46.865Z,16.45
2023-04-29T02:54:14.312Z,16.98
2023-04-29T02:56:41.740Z,17.30
2023-04-29T02:59:09.749Z,18.02
2023-04-29T03:01:39.959Z,16.55
2023-04-29T03:04:07.755Z,19.98
2023-04-29T03:06:35.777Z,16.30
2023-04-29T03:09:03.194Z,19.45
2023-04-29T03:11:30.688Z,18.42
2023-04-29T03:14:00.113Z,18.13
2023-04-29T03:16:28.781Z,19.75
2023-04-29T03:18:56.152Z,20.60
2023-04-29T03:21:26.341Z,16.77
2023-04-29T03:23:55.475Z,17.10
2023-04-29T03:26:29.029Z,17.92
2023-04-29T03:28:58.549Z,18.95
2023-04-29T03:31:27.532Z,20.33
2023-04-29T03:33:55.010Z,17.92
2023-04-29T03:36:23.528Z,17.58
2023-04-29T03:39:06.312Z,17.58
2023-04-29T03:41:34.038Z,19.92
2023-04-29T03:44:01.481Z,19.13
2023-04-29T03:46:30.345Z,15.77
2023-04-29T03:48:58.138Z,16.42
2023-04-29T03:51:26.377Z,15.68
2023-04-29T03:54:01.759Z,15.68
2023-04-29T03:56:29.304Z,19.30
2023-04-29T03:58:56.610Z,18.88
2023-04-29T04:01:26.564Z,17.92
2023-04-29T04:03:54.297Z,18.92
2023-04-29T04:06:22.146Z,15.13
2023-04-29T04:08:49.956Z,19.92
2023-04-29T04:11:21.186Z,20.13
2023-04-29T04:13:53.649Z,19.17
2023-04-29T04:16:21.612Z,17.90
2023-04-29T04:18:49.227Z,15.35
2023-04-29T04:21:16.803Z,17.20
2023-04-29T04:23:48.420Z,19.05
2023-04-29T04:26:21.124Z,18.13
2023-04-29T04:28:54.509Z,15.38
2023-04-29T04:31:30.098Z,21.02
2023-04-29T04:33:59.796Z,20.05
2023-04-29T04:36:28.519Z,18.08
2023-04-29T04:38:56.587Z,23.70
2023-04-29T04:41:24.267Z,18.30
2023-04-29T04:43:53.370Z,25.20
2023-04-29T04:46:33.458Z,18.00
2023-04-29T04:49:09.768Z,21.02
2023-04-29T04:51:45.830Z,22.48
2023-04-29T04:54:13.786Z,19.77
2023-04-29T04:56:44.001Z,18.30
2023-04-29T04:59:11.482Z,15.85
2023-04-29T05:01:41.077Z,19.05
2023-04-29T05:04:08.560Z,17.65
2023-04-29T05:06:36.352Z,17.85
2023-04-29T05:09:03.855Z,18.52
2023-04-29T05:11:32.320Z,17.60
2023-04-29T05:14:09.011Z,17.83
2023-04-29T05:16:36.681Z,17.63
2023-04-29T05:19:04.180Z,19.90
2023-04-29T05:21:35.844Z,18.48
2023-04-29T05:24:04.096Z,17.00
2023-04-29T05:26:31.454Z,21.30
2023-04-29T05:29:01.530Z,25.48
2023-04-29T05:31:32.488Z,24.73
2023-04-29T05:34:03.270Z,14.40
2023-04-29T05:36:31.858Z,19.05
2023-04-29T05:38:59.326Z,14.60
2023-04-29T05:41:26.895Z,17.98
2023-04-29T05:44:03.329Z,18.52
2023-04-29T05:46:32.552Z,19.70
2023-04-29T05:49:00.037Z,18.85
2023-04-29T05:51:28.358Z,17.88
2023-04-29T05:53:55.925Z,17.08
2023-04-29T05:56:23.516Z,15.48
2023-04-29T05:58:50.987Z,21.20
2023-04-29T06:01:18.738Z,17.83
2023-04-29T06:03:46.887Z,22.67
2023-04-29T06:06:54.189Z,16.42
2023-04-29T06:09:33.337Z,16.88
2023-04-29T06:12:03.568Z,18.45
2023-04-29T06:14:31.050Z,19.98
2023-04-29T06:16:59.333Z,19.50
2023-04-29T06:19:27.075Z,20.92
2023-04-29T06:21:54.455Z,18.25
2023-04-29T06:24:22.014Z,19.90
2023-04-29T06:26:49.395Z,19.40
2023-04-29T06:29:17.045Z,22.50
2023-04-29T06:31:47.517Z,22.02
2023-04-29T06:34:15.170Z,18.10
2023-04-29T06:37:05.834Z,18.42
2023-04-29T06:40:08.882Z,17.83
2023-04-29T06:43:08.744Z,20.95
2023-04-29T06:45:41.731Z,19.50
2023-04-29T06:48:18.493Z,17.77
2023-04-29T06:50:55.836Z,20.95
2023-04-29T06:53:24.532Z,17.98
2023-04-29T06:55:51.928Z,23.08
2023-04-29T06:58:23.388Z,19.33
2023-04-29T07:00:51.605Z,23.55
2023-04-29T07:03:19.550Z,19.13
2023-04-29T07:05:47.088Z,20.13
2023-04-29T07:08:14.736Z,27.02
2023-04-29T07:10:42.108Z,21.13
2023-04-29T07:13:09.650Z,19.23
2023-04-29T07:15:37.565Z,20.77
2023-04-29T07:18:05.608Z,19.20
2023-04-29T07:20:33.125Z,19.05
2023-04-29T07:23:00.509Z,19.02
2023-04-29T07:25:29.416Z,20.17
2023-04-29T07:27:57.159Z,23.48
2023-04-29T07:30:25.964Z,23.23
2023-04-29T07:32:53.375Z,23.77
2023-04-29T07:35:20.963Z,16.92
2023-04-29T07:37:48.363Z,22.42
2023-04-29T07:40:15.759Z,23.70
2023-04-29T07:42:43.995Z,18.92
2023-04-29T07:45:15.081Z,19.60
2023-04-29T07:47:42.500Z,19.23
2023-04-29T07:50:10.496Z,16.45
2023-04-29T07:52:40.875Z,18.02
2023-04-29T07:55:09.679Z,24.90
2023-04-29T07:57:37.123Z,20.55
2023-04-29T08:00:05.153Z,15.60
2023-04-29T08:02:42.779Z,21.50
2023-04-29T08:05:15.976Z,17.25
2023-04-29T08:07:43.506Z,19.05
2023-04-29T08:10:11.268Z,19.02
2023-04-29T08:12:38.796Z,23.50
2023-04-29T08:15:09.808Z,22.80
2023-04-29T08:17:37.544Z,17.08
2023-04-29T08:20:05.529Z,23.88
2023-04-29T08:22:32.890Z,19.17
2023-04-29T08:25:00.470Z,19.45
2023-04-29T08:27:27.848Z,21.55
2023-04-29T08:29:56.164Z,20.50
2023-04-29T08:32:23.542Z,15.45
2023-04-29T08:34:51.441Z,15.93
2023-04-29T08:37:20.685Z,14.45
2023-04-29T08:39:49.015Z,17.95
2023-04-29T08:42:21.157Z,12.73
2023-04-29T08:44:49.662Z,20.48
2023-04-29T08:47:17.862Z,15.18
2023-04-29T08:49:45.398Z,17.10
2023-04-29T08:52:15.838Z,14.70
2023-04-29T08:54:43.201Z,16.42
2023-04-29T08:57:12.235Z,14.60
2023-04-29T08:59:39.659Z,17.60
2023-04-29T09:02:11.866Z,18.63
2023-04-29T09:04:51.967Z,15.60
2023-04-29T09:07:19.628Z,14.07
2023-04-29T09:09:49.344Z,14.07
2023-04-29T09:12:16.686Z,15.02
2023-04-29T09:14:44.455Z,14.25
2023-04-29T09:17:11.802Z,11.80
2023-04-29T09:19:39.292Z,13.30
2023-04-29T09:22:09.336Z,14.02
2023-04-29T09:24:38.063Z,15.25
2023-04-29T09:27:05.617Z,11.05
2023-04-29T09:29:34.600Z,10.90
2023-04-29T09:32:19.549Z,14.45
2023-04-29T09:34:47.016Z,12.35
2023-04-29T09:37:28.115Z,14.00
2023-04-29T09:39:55.583Z,11.23
2023-04-29T09:42:22.977Z,13.52
2023-04-29T09:44:50.372Z,14.63
2023-04-29T09:47:17.911Z,13.18
2023-04-29T09:49:46.116Z,15.88
2023-04-29T09:52:16.389Z,11.65
2023-04-29T09:54:44.835Z,11.52
2023-04-29T09:57:15.727Z,23.38
2023-04-29T09:59:43.969Z,13.63
2023-04-29T10:02:17.733Z,11.23
2023-04-29T10:04:46.956Z,12.13
2023-04-29T10:07:16.808Z,17.80
2023-04-29T10:09:48.209Z,12.95
2023-04-29T10:12:20.701Z,15.05
2023-04-29T10:14:55.677Z,11.07
2023-04-29T10:17:45.123Z,11.40
2023-04-29T10:20:26.513Z,11.38
2023-04-29T10:22:56.624Z,12.50
2023-04-29T10:25:25.269Z,13.77
2023-04-29T10:27:53.767Z,11.80
2023-04-29T10:30:22.593Z,12.43
2023-04-29T10:32:52.491Z,14.85
2023-04-29T10:35:23.444Z,10.98
2023-04-29T10:37:53.135Z,12.20
2023-04-29T10:40:26.701Z,10.80
2023-04-29T10:42:55.193Z,11.80
2023-04-29T10:45:35.105Z,14.80
2023-04-29T10:48:06.161Z,13.68
2023-04-29T10:50:49.764Z,12.90
2023-04-29T10:53:20.615Z,15.93
2023-04-29T10:55:57.649Z,11.73
2023-04-29T10:58:45.455Z,13.20
2023-04-29T11:01:17.408Z,15.85
2023-04-29T11:06:39.758Z,17.88
2023-04-29T11:09:16.128Z,19.67
2023-04-29T11:11:53.988Z,13.90
2023-04-29T11:14:27.025Z,17.02
2023-04-29T11:17:01.410Z,11.98
2023-04-29T11:19:36.738Z,13.32
2023-04-29T11:22:14.327Z,16.67
2023-04-29T11:25:04.636Z,18.00
2023-04-29T11:27:36.654Z,18.95
2023-04-29T11:30:06.559Z,12.75
2023-04-29T11:32:42.999Z,15.05
2023-04-29T11:35:18.395Z,13.00
2023-04-29T11:37:47.182Z,19.63
2023-04-29T11:40:15.221Z,18.88
2023-04-29T11:42:46.698Z,16.45
2023-04-29T11:45:15.285Z,17.10
2023-04-29T11:47:45.734Z,16.20
2023-04-29T11:50:16.747Z,18.27
2023-04-29T11:52:47.038Z,15.67
2023-04-29T11:55:14.804Z,14.85
2023-04-29T11:57:42.368Z,14.80
2023-04-29T12:00:14.193Z,19.50
2023-04-29T12:05:13.703Z,14.68
2023-04-29T12:07:41.465Z,12.35
2023-04-29T12:10:10.875Z,20.63
2023-04-29T12:12:41.055Z,14.27
2023-04-29T12:15:10.209Z,14.55
2023-04-29T12:17:38.808Z,16.73
2023-04-29T12:20:09.450Z,16.05
2023-04-29T12:22:36.836Z,14.65
2023-04-29T12:25:07.924Z,13.07
2023-04-29T12:27:36.881Z,13.13
2023-04-29T12:30:09.753Z,12.40
2023-04-29T12:32:38.636Z,12.65
2023-04-29T12:35:07.393Z,17.35
2023-04-29T12:37:35.465Z,15.38
2023-04-29T12:40:03.714Z,13.88
2023-04-29T12:42:36.637Z,14.73
2023-04-29T12:45:06.670Z,14.30
2023-04-29T12:47:37.499Z,11.50
2023-04-29T12:50:07.259Z,12.82
2023-04-29T12:52:36.639Z,13.55
2023-04-29T12:55:05.032Z,16.08
2023-04-29T12:57:32.421Z,16.98
2023-04-29T12:59:59.876Z,17.95
2023-04-29T13:02:28.363Z,13.85
2023-04-29T13:04:56.255Z,16.80
2023-04-29T13:07:23.901Z,15.68
2023-04-29T13:09:51.258Z,15.60
2023-04-29T13:12:18.587Z,14.82
2023-04-29T13:14:46.218Z,15.38
2023-04-29T13:17:13.986Z,16.10
2023-04-29T13:19:51.059Z,16.17
2023-04-29T13:22:20.183Z,14.65
2023-04-29T13:24:47.767Z,13.60
2023-04-29T13:27:15.101Z,14.30
2023-04-29T13:29:42.609Z,18.02
2023-04-29T13:32:12.813Z,16.35
2023-04-29T13:34:43.349Z,15.15
2023-04-29T13:37:11.743Z,12.57
2023-04-29T13:39:39.764Z,15.27
2023-04-29T13:42:08.984Z,15.02
2023-04-29T13:44:49.787Z,13.15
2023-04-29T13:47:25.522Z,15.57
2023-04-29T13:50:22.573Z,11.18
2023-04-29T14:00:37.085Z,13.85
2023-04-29T14:03:03.313Z,16.38
2023-04-29T14:05:31.161Z,15.10
2023-04-29T14:07:58.587Z,15.95
2023-04-29T14:10:26.126Z,13.68
2023-04-29T14:12:53.452Z,12.27
2023-04-29T14:15:20.954Z,11.88
2023-04-29T14:17:50.235Z,15.38
2023-04-29T14:20:20.812Z,13.32
2023-04-29T14:22:48.088Z,15.02
2023-04-29T14:25:15.543Z,11.82
2023-04-29T14:27:42.878Z,16.48
2023-04-29T14:30:10.813Z,13.98
2023-04-29T14:32:38.164Z,13.88
2023-04-29T14:35:06.377Z,10.15
2023-04-29T14:37:33.766Z,13.82
2023-04-29T14:40:01.221Z,11.93
2023-04-29T14:42:28.535Z,11.35
2023-04-29T14:44:58.788Z,11.35
2023-04-29T14:47:26.338Z,15.60
2023-04-29T14:49:53.729Z,10.55
2023-04-29T14:52:24.093Z,12.65
2023-04-29T14:54:51.599Z,18.70
2023-04-29T14:57:19.024Z,13.88
2023-04-29T14:59:46.928Z,14.65
2023-04-29T15:02:14.305Z,14.20
2023-04-29T15:04:45.753Z,12.55
2023-04-29T15:07:13.871Z,14.43
2023-04-29T15:09:41.994Z,14.57
2023-04-29T15:12:09.656Z,15.63
2023-04-29T15:14:37.705Z,13.55
2023-04-29T15:17:05.119Z,12.88
2023-04-29T15:19:32.533Z,12.07
2023-04-29T15:21:59.846Z,12.38
2023-04-29T15:24:27.252Z,14.68
2023-04-29T15:26:54.636Z,13.60
2023-04-29T15:29:22.190Z,12.70
2023-04-29T15:31:49.702Z,13.73
2023-04-29T15:34:17.109Z,16.10
2023-04-29T15:36:44.489Z,11.90
2023-04-29T15:39:12.267Z,14.43
2023-04-29T15:41:39.638Z,13.93
2023-04-29T15:44:07.073Z,13.73
2023-04-29T15:46:34.412Z,16.90
2023-04-29T15:49:02.479Z,11.60
2023-04-29T15:51:29.827Z,12.73
2023-04-29T15:53:57.251Z,13.30
2023-04-29T15:56:25.091Z,12.80
2023-04-29T15:58:53.076Z,12.25
2023-04-29T16:01:20.531Z,13.07
2023-04-29T16:03:48.102Z,13.40
2023-04-29T16:06:16.854Z,11.88
2023-04-29T16:08:44.292Z,13.52
2023-04-29T16:11:12.082Z,18.02
2023-04-29T16:13:39.448Z,19.15
2023-04-29T16:16:07.059Z,11.45
2023-04-29T16:18:34.391Z,12.45
2023-04-29T16:21:02.805Z,10.75
2023-04-29T16:23:30.259Z,14.60
2023-04-29T16:25:57.707Z,16.05
2023-04-29T16:28:25.094Z,14.23
2023-04-29T16:30:52.363Z,14.13
2023-04-29T16:33:19.852Z,15.80
2023-04-29T16:35:47.680Z,14.30
2023-04-29T16:38:15.125Z,17.35
2023-04-29T16:40:42.456Z,14.05
2023-04-29T16:43:12.252Z,12.75
2023-04-29T16:45:39.797Z,15.32
2023-04-29T16:48:08.311Z,14.15
2023-04-29T16:50:37.616Z,13.00
2023-04-29T16:53:04.999Z,12.70
2023-04-29T16:55:32.493Z,12.30
2023-04-29T16:57:59.909Z,13.35
2023-04-29T17:00:30.429Z,12.82
2023-04-29T17:02:58.580Z,15.77
2023-04-29T17:05:27.149Z,15.52
2023-04-29T17:07:54.978Z,14.70
2023-04-29T17:10:22.402Z,13.52
2023-04-29T17:12:49.812Z,15.73
2023-04-29T17:15:17.242Z,13.15
2023-04-29T17:17:46.703Z,13.60
2023-04-29T17:20:14.200Z,18.73
2023-04-29T17:22:44.864Z,15.35
2023-04-29T17:25:13.788Z,15.38
2023-04-29T17:27:44.429Z,12.50
2023-04-29T17:30:14.325Z,16.88
2023-04-29T17:32:44.274Z,13.32
2023-04-29T17:35:11.787Z,11.85
2023-04-29T17:37:39.194Z,13.98
2023-04-29T17:40:09.917Z,16.77
2023-04-29T17:42:37.436Z,18.05
2023-04-29T17:45:05.520Z,14.05
2023-04-29T17:47:33.819Z,11.65
2023-04-29T17:50:02.630Z,12.43
2023-04-29T17:52:32.723Z,15.32
2023-04-29T17:55:00.131Z,15.00
2023-04-29T17:57:28.729Z,13.75
2023-04-29T17:59:56.827Z,15.27
2023-04-29T18:02:27.635Z,14.93
2023-04-29T18:04:55.858Z,14.23
2023-04-29T18:07:23.260Z,12.60
2023-04-29T18:09:51.085Z,14.25
2023-04-29T18:12:18.576Z,14.48
2023-04-29T18:14:48.792Z,14.48
2023-04-29T18:17:16.266Z,14.75
2023-04-29T18:19:46.687Z,13.82
2023-04-29T18:22:14.272Z,17.48
2023-04-29T18:24:41.593Z,18.55
2023-04-29T18:27:09.026Z,16.92
2023-04-29T18:29:39.123Z,14.75
2023-04-29T18:32:07.973Z,17.33
2023-04-29T18:34:35.807Z,18.73
2023-04-29T18:37:03.163Z,15.27
2023-04-29T18:39:30.630Z,20.88
2023-04-29T18:41:58.144Z,15.52
2023-04-29T18:44:26.331Z,15.57
2023-04-29T18:46:55.283Z,17.88
2023-04-29T18:49:22.652Z,17.17
2023-04-29T18:51:52.879Z,15.57
2023-04-29T18:54:20.249Z,14.40
2023-04-29T18:56:50.655Z,18.33
2023-04-29T18:59:19.830Z,19.02
2023-04-29T19:01:48.798Z,16.48
2023-04-29T19:06:47.219Z,17.08
2023-04-29T19:09:14.620Z,18.48
2023-04-29T19:11:42.044Z,20.83
2023-04-29T19:14:09.421Z,16.52
2023-04-29T19:16:37.464Z,20.33
2023-04-29T19:19:05.343Z,18.60
2023-04-29T19:21:33.405Z,14.85
2023-04-29T19:24:00.873Z,19.35
2023-04-29T19:26:28.969Z,16.90
2023-04-29T19:28:56.314Z,19.30
2023-04-29T19:31:23.750Z,17.88
2023-04-29T19:33:52.415Z,19.65
2023-04-29T19:36:22.438Z,26.05
2023-04-29T19:38:49.936Z,18.30
2023-04-29T19:41:17.945Z,18.55
2023-04-29T19:43:45.251Z,16.23
2023-04-29T19:46:13.387Z,16.27
2023-04-29T19:48:41.087Z,15.48
2023-04-29T19:51:09.782Z,19.33
2023-04-29T19:53:37.336Z,17.65
2023-04-29T19:56:05.326Z,17.83
2023-04-29T19:58:33.086Z,18.25
2023-04-29T20:01:00.637Z,19.77
2023-04-29T20:03:28.284Z,18.60
2023-04-29T20:05:55.696Z,19.35
2023-04-29T20:08:23.107Z,16.58
2023-04-29T20:10:50.469Z,18.48
2023-04-29T20:13:17.804Z,17.02
2023-04-29T20:15:45.223Z,18.48
2023-04-29T20:18:13.750Z,16.98
2023-04-29T20:20:41.160Z,16.65
2023-04-29T20:23:08.473Z,20.15
2023-04-29T20:25:35.910Z,17.23
2023-04-29T20:28:03.290Z,20.42
2023-04-29T20:30:30.862Z,17.33
2023-04-29T20:32:58.204Z,17.38
2023-04-29T20:35:27.031Z,15.35
2023-04-29T20:37:54.617Z,18.92
2023-04-29T20:40:22.365Z,19.95
2023-04-29T20:42:49.782Z,16.52
2023-04-29T20:45:18.382Z,21.00
2023-04-29T20:47:45.906Z,17.08
2023-04-29T20:50:13.675Z,20.88
2023-04-29T20:52:41.630Z,18.08
2023-04-29T20:55:09.406Z,15.70
2023-04-29T20:57:37.384Z,19.80
2023-04-29T21:00:05.670Z,23.67
2023-04-29T21:02:33.831Z,18.50
2023-04-29T21:05:01.386Z,17.25
2023-04-29T21:07:29.504Z,17.23
2023-04-29T21:09:58.835Z,17.48
2023-04-29T21:12:26.325Z,20.42
2023-04-29T21:14:53.931Z,19.35
2023-04-29T21:17:21.329Z,19.35
2023-04-29T21:19:48.816Z,18.58
2023-04-29T21:22:16.106Z,21.30
2023-04-29T21:24:43.485Z,21.63
2023-04-29T21:27:10.865Z,23.45
2023-04-29T21:29:41.095Z,20.98
2023-04-29T21:32:08.879Z,19.80
2023-04-29T21:34:36.248Z,22.83
2023-04-29T21:37:04.681Z,19.92
2023-04-29T21:39:32.326Z,20.13
2023-04-29T21:42:02.665Z,18.20
2023-04-29T21:44:30.556Z,19.98
2023-04-29T21:46:59.842Z,19.58
2023-04-29T21:49:30.708Z,17.95
2023-04-29T21:51:58.035Z,19.42
2023-04-29T21:54:25.429Z,18.88
2023-04-29T21:56:52.760Z,17.98
2023-04-29T21:59:20.170Z,19.70
2023-04-29T22:01:47.641Z,17.65
2023-04-29T22:04:16.740Z,23.08
2023-04-29T22:06:44.196Z,19.40
2023-04-29T22:09:11.608Z,22.02
2023-04-29T22:11:39.180Z,19.65
2023-04-29T22:14:06.696Z,20.70
2023-04-29T22:16:35.926Z,18.85
2023-04-29T22:19:04.218Z,17.65
2023-04-29T22:21:31.756Z,18.70
2023-04-29T22:23:59.203Z,18.48
2023-04-29T22:26:26.862Z,18.02
2023-04-29T22:28:54.988Z,19.75
2023-04-29T22:31:22.367Z,18.40
2023-04-29T22:33:49.755Z,18.10
2023-04-29T22:36:17.119Z,18.05
2023-04-29T22:38:47.582Z,22.48
2023-04-29T22:41:15.045Z,20.15
2023-04-29T22:43:42.405Z,22.90
2023-04-29T22:46:09.787Z,17.95
2023-04-29T22:48:37.229Z,21.95
2023-04-29T22:51:04.749Z,20.02
2023-04-29T22:53:35.036Z,18.63
2023-04-29T22:56:03.182Z,19.05
2023-04-29T22:58:31.598Z,17.38
2023-04-29T23:01:00.420Z,27.13
2023-04-29T23:03:28.059Z,21.85
2023-04-29T23:05:59.448Z,19.55
2023-04-29T23:08:27.582Z,19.17
2023-04-29T23:10:55.010Z,24.23
2023-04-29T23:13:22.428Z,19.30
2023-04-29T23:15:49.806Z,24.42
2023-04-29T23:18:17.183Z,21.33
2023-04-29T23:20:47.955Z,16.88
2023-04-29T23:23:15.454Z,17.42
2023-04-29T23:25:45.219Z,20.65
2023-04-29T23:28:12.674Z,19.17
2023-04-29T23:30:40.227Z,19.63
2023-04-29T23:33:07.903Z,18.58
2023-04-29T23:35:35.297Z,27.38
2023-04-29T23:38:02.699Z,19.35
2023-04-29T23:40:31.169Z,19.25
2023-04-29T23:42:59.191Z,21.10
2023-04-29T23:45:26.568Z,20.15
2023-04-29T23:47:54.038Z,21.35
2023-04-29T23:50:21.378Z,19.52
2023-04-29T23:52:48.768Z,19.33
2023-04-29T23:55:16.221Z,21.10
2023-04-29T23:57:43.659Z,19.30
